Time;durP1;ratioP1;P1;durP2;ratioP2;P2;SDS_P1;SDS_P2;PMS_P1;PMS_P2;Temp;Humidity;BMP_temperature;BMP_pressure;BME280_temperature;BME280_humidity;BME280_pressure;Samples;Min_cycle;Max_cycle;Signal;HPM_P1;HPM_P2
2020/12/03 00:00:38;;;;;;;56.63;26.77;;;;;;;-0.62;82.39;98441.59;5019675;28;20060;-66
2020/12/03 00:03:11;;;;;;;52.38;25.00;;;;;;;-0.52;83.52;98446.91;5015927;28;20495;-66
2020/12/03 00:05:36;;;;;;;63.35;28.35;;;;;;;-0.41;82.79;98443.72;5030692;28;20032;-66
2020/12/03 00:08:02;;;;;;;54.65;27.48;;;;;;;-0.48;81.29;98437.66;5020647;28;20017;-66
2020/12/03 00:10:29;;;;;;;55.30;26.38;;;;;;;-0.49;81.43;98435.91;5023906;28;20818;-66
2020/12/03 00:13:10;;;;;;;51.85;25.85;;;;;;;-0.53;81.47;98434.16;5027675;28;20032;-66
2020/12/03 00:15:35;;;;;;;55.72;27.23;;;;;;;-0.46;82.09;98425.81;5017514;28;20037;-66
2020/12/03 00:18:01;;;;;;;56.00;25.85;;;;;;;-0.50;82.98;98429.13;5027565;28;20022;-66
2020/12/03 00:20:27;;;;;;;54.55;25.65;;;;;;;-0.49;82.09;98425.75;5023477;28;20036;-66
2020/12/03 00:22:52;;;;;;;55.50;25.55;;;;;;;-0.60;82.04;98420.44;5020378;28;20084;-66
2020/12/03 00:25:18;;;;;;;55.25;25.05;;;;;;;-0.51;81.82;98412.13;5029055;28;20033;-66
2020/12/03 00:27:54;;;;;;;61.65;27.52;;;;;;;-0.51;82.00;98407.06;5017775;28;20018;-66
2020/12/03 00:30:21;;;;;;;56.42;27.30;;;;;;;-0.55;82.26;98395.09;5024753;28;20399;-66
2020/12/03 00:32:47;;;;;;;53.63;26.83;;;;;;;-0.50;83.10;98402.81;5025977;28;20273;-66
2020/12/03 00:35:13;;;;;;;58.53;26.80;;;;;;;-0.41;82.30;98395.38;5017483;28;20041;-66
2020/12/03 00:37:40;;;;;;;55.92;26.05;;;;;;;-0.65;82.18;98393.19;5028774;28;20022;-66
2020/12/03 00:40:05;;;;;;;58.05;27.45;;;;;;;-0.66;82.80;98401.66;5020614;28;20024;-66
2020/12/03 00:42:30;;;;;;;56.80;27.20;;;;;;;-0.63;83.22;98407.69;5022959;28;20029;-66
2020/12/03 00:44:56;;;;;;;55.22;27.20;;;;;;;-0.44;84.00;98408.00;5027246;28;20060;-66
2020/12/03 00:47:21;;;;;;;58.85;26.80;;;;;;;-0.43;83.01;98405.53;5015470;28;20033;-66
2020/12/03 00:49:46;;;;;;;58.72;27.17;;;;;;;-0.45;83.57;98396.97;5028670;28;20034;-66
2020/12/03 00:52:12;;;;;;;64.53;28.15;;;;;;;-0.47;83.33;98393.56;5019857;28;20026;-66
2020/12/03 00:54:37;;;;;;;56.35;26.77;;;;;;;-0.60;82.78;98396.69;5003979;28;20018;-66
2020/12/03 00:57:03;;;;;;;54.65;26.75;;;;;;;-0.54;82.46;98389.16;4996105;28;20029;-66
2020/12/03 00:59:28;;;;;;;58.83;28.63;;;;;;;-0.73;82.81;98394.72;5013437;28;20022;-66
2020/12/03 09:56:37;;;;;;;32.78;13.50;;;;;;;1.90;75.99;97918.56;5953288;23;20030;-72
2020/12/03 09:59:03;;;;;;;24.48;13.18;;;;;;;1.96;74.13;97918.59;4963783;28;20059;-70
2020/12/03 10:01:56;;;;;;;23.42;13.43;;;;;;;1.97;74.39;97904.94;4954090;28;20035;-70
2020/12/03 10:04:39;;;;;;;26.23;13.90;;;;;;;2.04;74.26;97906.69;4953930;29;20035;-70
2020/12/03 10:07:22;;;;;;;26.27;13.50;;;;;;;2.18;74.29;97899.91;4954022;28;20027;-70
2020/12/03 10:10:18;;;;;;;26.23;15.13;;;;;;;2.30;73.87;97894.78;4954828;28;20125;-69
2020/12/03 10:13:09;;;;;;;31.08;14.82;;;;;;;2.03;74.51;97885.41;4953817;28;20110;-70
2020/12/03 10:16:03;;;;;;;30.35;14.32;;;;;;;2.14;73.95;97885.41;4953878;28;20031;-70
2020/12/03 10:18:39;;;;;;;30.05;13.95;;;;;;;2.18;73.46;97869.22;4953851;28;20027;-69
2020/12/03 10:21:05;;;;;;;24.23;14.82;;;;;;;2.13;74.25;97870.94;4953922;28;20035;-70
2020/12/03 10:23:33;;;;;;;30.02;15.65;;;;;;;2.27;73.97;97856.47;4953571;28;20519;-70
2020/12/03 10:26:11;;;;;;;31.75;16.30;;;;;;;2.34;74.04;97848.78;4923307;28;20130;-69
2020/12/03 10:28:40;;;;;;;25.10;14.20;;;;;;;2.42;72.49;97839.38;4953485;29;20031;-70
2020/12/03 10:31:06;;;;;;;29.17;14.77;;;;;;;2.51;72.32;97827.44;4953994;28;20425;-70
2020/12/03 10:33:35;;;;;;;33.47;15.65;;;;;;;2.52;72.03;97830.88;4953337;29;20182;-69
2020/12/03 10:36:09;;;;;;;25.58;14.10;;;;;;;2.62;72.12;97822.34;4953937;28;20114;-69
2020/12/03 10:38:44;;;;;;;24.80;13.43;;;;;;;2.56;71.38;97824.88;4953127;28;20167;-70
2020/12/03 10:41:09;;;;;;;26.33;13.52;;;;;;;2.43;70.95;97818.94;4953490;28;20118;-70
2020/12/03 10:43:37;;;;;;;27.13;14.75;;;;;;;2.57;71.44;97817.22;4953189;28;20154;-70
2020/12/03 10:46:10;;;;;;;33.70;15.30;;;;;;;2.52;71.83;97812.97;4953408;28;20085;-70
2020/12/03 10:48:39;;;;;;;26.20;14.10;;;;;;;2.65;71.29;97809.53;4952703;28;20473;-71
2020/12/03 10:51:07;;;;;;;24.35;13.70;;;;;;;2.58;71.27;97807.84;4953230;28;20420;-70
2020/12/03 10:53:33;;;;;;;24.83;13.45;;;;;;;2.64;70.73;97812.94;4953010;28;20031;-70
2020/12/03 10:56:05;;;;;;;22.67;13.10;;;;;;;2.65;70.69;97806.97;4953271;28;20023;-70
2020/12/03 10:58:45;;;;;;;22.15;12.93;;;;;;;2.99;69.94;97805.16;4952918;28;20101;-71
2020/12/03 11:01:27;;;;;;;21.35;12.48;;;;;;;3.04;69.61;97805.13;4953383;28;20396;-70
2020/12/03 11:03:53;;;;;;;23.30;12.23;;;;;;;3.22;68.46;97807.63;4953451;28;20035;-71
2020/12/03 11:06:27;;;;;;;38.17;14.68;;;;;;;2.88;69.35;97791.56;4953267;28;20027;-70
2020/12/03 11:08:52;;;;;;;27.60;13.32;;;;;;;2.93;69.04;97789.00;4953140;28;20037;-70
2020/12/03 11:11:19;;;;;;;23.75;13.02;;;;;;;3.09;68.34;97790.63;4953413;28;20031;-70
2020/12/03 11:13:44;;;;;;;27.33;13.25;;;;;;;3.44;68.40;97781.94;4953034;28;20023;-70
2020/12/03 11:16:11;;;;;;;20.50;12.10;;;;;;;3.91;66.96;97770.50;4952994;28;20050;-70
2020/12/03 11:18:43;;;;;;;19.85;11.50;;;;;;;4.28;63.53;97763.34;4952666;28;20105;-70
2020/12/03 11:21:16;;;;;;;19.38;11.20;;;;;;;5.11;62.68;97763.28;4952957;28;20090;-70
2020/12/03 11:23:56;;;;;;;16.88;10.80;;;;;;;6.21;55.17;97753.13;4952644;28;20102;-70
2020/12/03 11:26:27;;;;;;;21.67;11.15;;;;;;;5.12;58.76;97749.56;4953225;28;20037;-70
2020/12/03 11:28:53;;;;;;;22.33;12.38;;;;;;;4.26;62.79;97754.84;4951519;29;20431;-70
2020/12/03 11:31:18;;;;;;;18.73;11.07;;;;;;;4.53;62.51;97758.81;4952814;29;20027;-70
2020/12/03 11:33:51;;;;;;;21.23;12.50;;;;;;;4.37;64.05;97753.00;4952694;29;20090;-70
2020/12/03 11:36:16;;;;;;;16.33;10.85;;;;;;;4.12;62.39;97742.13;4952986;28;20034;-70
2020/12/03 11:38:51;;;;;;;21.50;11.38;;;;;;;3.76;64.12;97751.81;4952670;28;20485;-70
2020/12/03 11:49:51;;;;;;;15.00;8.80;;;;;;;3.63;62.42;97731.41;4932683;28;20110;-70
2020/12/03 11:52:18;;;;;;;24.48;10.05;;;;;;;3.81;63.06;97727.00;4939857;29;20472;-70
2020/12/03 11:54:44;;;;;;;14.63;9.50;;;;;;;3.85;62.05;97715.88;4952387;28;20063;-70
2020/12/03 11:57:13;;;;;;;20.83;10.18;;;;;;;3.89;63.15;97713.28;4938754;28;20039;-70
2020/12/03 11:59:38;;;;;;;13.55;8.60;;;;;;;3.90;63.05;97703.03;4950260;28;20109;-71
2020/12/03 12:02:06;;;;;;;17.02;9.85;;;;;;;3.50;64.45;97710.19;4941486;29;20428;-70
2020/12/03 12:05:00;;;;;;;24.08;8.57;;;;;;;3.85;61.89;97691.97;4956059;28;20023;-70
2020/12/03 12:12:35;;;;;;;17.13;9.88;;;;;;;3.87;61.80;97677.44;4945326;29;20027;-70
2020/12/03 12:15:01;;;;;;;15.02;9.80;;;;;;;3.61;60.63;97678.50;4943998;28;20023;-70
2020/12/03 12:17:29;;;;;;;16.35;9.07;;;;;;;3.60;62.30;97670.84;4950177;29;20483;-70
2020/12/03 12:19:56;;;;;;;13.52;7.57;;;;;;;3.72;62.12;97657.91;4940338;29;20491;-70
2020/12/03 12:22:21;;;;;;;10.90;7.55;;;;;;;3.55;61.18;97658.06;4948553;28;20449;-70
2020/12/03 12:24:47;;;;;;;12.45;8.05;;;;;;;3.72;60.80;97645.09;4936460;29;20031;-70
2020/12/03 12:27:13;;;;;;;13.20;8.38;;;;;;;3.63;61.92;97623.84;4949869;29;20553;-70
2020/12/03 12:29:38;;;;;;;12.90;7.55;;;;;;;3.71;61.88;97628.06;4940106;28;20097;-70
2020/12/03 12:32:05;;;;;;;15.02;9.20;;;;;;;3.82;61.42;97618.56;4954454;29;20026;-70
2020/12/03 12:34:31;;;;;;;16.20;8.25;;;;;;;3.66;61.53;97618.72;4955405;28;20031;-70
2020/12/03 12:36:57;;;;;;;13.55;8.82;;;;;;;3.72;61.82;97619.50;4943709;28;20027;-71
2020/12/03 12:39:22;;;;;;;11.88;8.00;;;;;;;3.49;61.88;97618.88;4951319;29;20592;-71
2020/12/03 12:42:05;;;;;;;14.85;8.48;;;;;;;3.57;63.00;97619.63;4952912;28;21418;-70
2020/12/03 12:44:31;;;;;;;10.35;6.68;;;;;;;3.12;62.30;97616.59;4944250;29;20477;-70
2020/12/03 12:47:00;;;;;;;12.77;8.00;;;;;;;3.23;63.58;97612.25;4943638;28;20079;-69
2020/12/03 12:49:26;;;;;;;15.05;8.80;;;;;;;3.21;64.02;97613.97;4951586;29;20111;-70
2020/12/03 12:51:53;;;;;;;21.35;10.85;;;;;;;3.05;63.79;97607.28;4952184;28;20024;-70
2020/12/03 12:54:21;;;;;;;21.83;11.95;;;;;;;3.04;64.00;97592.75;4942499;29;20432;-70
2020/12/03 12:56:47;;;;;;;17.35;8.15;;;;;;;2.96;64.63;97599.66;4955053;28;20042;-70
2020/12/03 12:59:15;;;;;;;16.92;9.57;;;;;;;3.00;64.88;97583.44;4941380;28;20075;-70
2020/12/03 13:01:44;;;;;;;14.07;8.68;;;;;;;2.93;65.02;97584.34;4951713;29;20031;-70
2020/12/03 13:04:11;;;;;;;14.38;8.07;;;;;;;2.94;64.87;97568.97;4941317;29;20019;-70
2020/12/03 13:06:36;;;;;;;16.58;10.43;;;;;;;3.00;64.63;97565.53;4954896;28;20444;-70
2020/12/03 13:09:02;;;;;;;13.35;8.68;;;;;;;2.97;64.26;97557.88;4942957;29;20079;-70
2020/12/03 13:11:27;;;;;;;11.30;7.57;;;;;;;2.87;65.11;97561.34;4951064;28;20127;-69
2020/12/03 13:13:52;;;;;;;12.88;7.47;;;;;;;2.85;65.03;97566.47;4951722;28;20023;-70
2020/12/03 13:16:18;;;;;;;14.07;7.82;;;;;;;2.99;65.19;97558.69;4941979;29;20027;-70
2020/12/03 13:18:43;;;;;;;12.23;7.85;;;;;;;2.93;64.71;97559.59;4954797;28;20031;-70
2020/12/03 13:21:08;;;;;;;13.40;7.85;;;;;;;2.87;64.50;97558.81;4941448;28;20074;-70
2020/12/03 13:23:35;;;;;;;12.43;7.20;;;;;;;2.94;64.80;97558.72;4951385;29;20103;-70
2020/12/03 13:26:01;;;;;;;14.45;7.57;;;;;;;2.89;64.66;97557.91;4939875;29;20034;-70
2020/12/03 13:28:26;;;;;;;10.98;7.35;;;;;;;2.89;64.66;97562.19;4954434;28;20027;-70
2020/12/03 13:30:51;;;;;;;9.48;6.70;;;;;;;2.84;65.43;97564.78;4943675;28;20114;-70
2020/12/03 13:33:17;;;;;;;12.43;7.32;;;;;;;2.79;65.22;97557.13;4949570;29;20038;-70
2020/12/03 13:35:42;;;;;;;11.98;8.00;;;;;;;2.90;65.56;97551.09;4952552;28;20023;-70
2020/12/03 13:38:07;;;;;;;14.18;7.43;;;;;;;2.73;66.18;97552.06;4940109;29;20093;-70
2020/12/03 13:40:32;;;;;;;13.00;8.07;;;;;;;2.87;66.46;97543.44;4954399;28;20038;-70
2020/12/03 13:42:58;;;;;;;13.32;8.45;;;;;;;2.74;65.65;97535.84;4942467;28;20031;-70
2020/12/03 13:45:23;;;;;;;12.98;7.63;;;;;;;2.86;66.03;97534.09;4950341;29;20035;-70
2020/12/03 13:47:48;;;;;;;13.77;9.05;;;;;;;2.81;66.83;97519.63;4951416;28;20024;-70
2020/12/03 13:50:14;;;;;;;11.07;7.03;;;;;;;2.76;66.63;97517.97;4939963;29;20118;-70
2020/12/03 13:52:39;;;;;;;11.85;8.13;;;;;;;2.72;67.04;97519.69;4954242;28;20029;-70
2020/12/03 13:55:04;;;;;;;15.15;7.50;;;;;;;2.63;67.14;97512.06;4941677;28;20106;-70
2020/12/03 13:57:31;;;;;;;14.50;8.27;;;;;;;2.65;67.63;97512.91;4950685;29;20023;-70
2020/12/03 13:59:56;;;;;;;15.18;8.55;;;;;;;2.56;67.98;97512.97;4950228;28;20536;-70
2020/12/03 14:02:25;;;;;;;15.48;8.73;;;;;;;2.52;68.20;97511.31;4941968;29;20110;-71
2020/12/03 14:04:50;;;;;;;12.40;7.95;;;;;;;2.63;68.55;97501.84;4953777;28;20027;-70
2020/12/03 14:07:15;;;;;;;15.32;8.98;;;;;;;2.54;68.00;97494.25;4939882;28;20086;-71
2020/12/03 14:09:41;;;;;;;15.45;8.02;;;;;;;2.65;67.98;97482.22;4952099;29;20031;-70
2020/12/03 14:12:06;;;;;;;13.95;8.80;;;;;;;2.59;68.10;97484.81;4949050;28;20481;-70
2020/12/03 14:14:31;;;;;;;12.63;8.05;;;;;;;2.55;67.97;97480.59;4942933;29;20054;-70
2020/12/03 14:16:57;;;;;;;15.30;8.70;;;;;;;2.56;68.57;97477.16;4953485;28;20027;-70
2020/12/03 14:19:22;;;;;;;12.05;8.30;;;;;;;2.52;68.57;97470.41;4938588;28;20039;-70
2020/12/03 14:21:47;;;;;;;17.75;9.32;;;;;;;2.48;69.04;97466.19;4952184;28;20042;-70
2020/12/03 14:24:13;;;;;;;17.83;9.15;;;;;;;2.44;69.09;97462.78;4947612;28;20061;-70
2020/12/03 14:26:38;;;;;;;19.13;9.13;;;;;;;2.48;69.43;97461.06;4943390;29;20034;-70
2020/12/03 14:29:03;;;;;;;16.58;8.85;;;;;;;2.40;69.46;97460.25;4953390;28;20480;-70
2020/12/03 14:31:28;;;;;;;16.73;8.25;;;;;;;2.33;69.80;97454.34;4937526;28;20062;-70
2020/12/03 14:33:54;;;;;;;14.60;9.10;;;;;;;2.40;70.25;97455.16;4953636;28;20023;-70
2020/12/03 14:36:19;;;;;;;15.18;8.95;;;;;;;2.43;70.11;97460.25;4946860;28;20043;-70
2020/12/03 14:38:44;;;;;;;16.35;9.68;;;;;;;2.45;70.64;97444.03;4944225;29;20493;-70
2020/12/03 14:41:10;;;;;;;15.68;9.80;;;;;;;2.41;70.18;97452.56;4953388;28;20035;-70
2020/12/03 14:43:35;;;;;;;15.48;8.98;;;;;;;2.36;70.38;97454.31;4937209;28;20370;-70
2020/12/03 14:46:00;;;;;;;14.70;8.73;;;;;;;2.37;70.49;97450.03;4953304;28;20019;-71
2020/12/03 14:48:26;;;;;;;20.42;8.80;;;;;;;2.34;71.04;97445.81;4945493;28;20135;-70
2020/12/03 14:50:52;;;;;;;13.10;7.90;;;;;;;2.27;71.68;97444.16;4944923;29;20043;-70
2020/12/03 14:53:17;;;;;;;16.67;8.93;;;;;;;2.24;71.87;97445.03;4952814;28;20058;-70
2020/12/03 14:55:47;;;;;;;12.65;9.20;;;;;;;2.28;71.14;97441.59;4935273;29;20024;-70
2020/12/03 14:58:16;;;;;;;17.25;9.23;;;;;;;2.19;71.81;97431.44;4939363;29;20031;-70
2020/12/03 15:00:41;;;;;;;15.27;9.63;;;;;;;2.17;71.57;97433.13;4943364;28;20028;-70
2020/12/03 15:03:06;;;;;;;14.80;8.48;;;;;;;2.18;71.99;97427.19;4946630;29;20535;-70
2020/12/03 15:05:32;;;;;;;15.80;10.75;;;;;;;2.22;72.35;97431.41;4951028;29;20118;-70
2020/12/03 15:07:57;;;;;;;13.75;8.57;;;;;;;2.17;72.31;97433.13;4937463;29;20118;-70
2020/12/03 15:10:31;;;;;;;17.65;10.55;;;;;;;2.13;72.97;97421.28;4952995;28;20485;-70
2020/12/03 15:12:56;;;;;;;19.67;9.50;;;;;;;2.11;73.28;97420.41;4941538;28;20024;-70
2020/12/03 15:15:22;;;;;;;18.75;10.10;;;;;;;2.18;73.45;97414.41;4947606;29;20481;-70
2020/12/03 15:17:47;;;;;;;22.13;11.25;;;;;;;2.10;73.91;97421.28;4949715;28;20026;-70
2020/12/03 15:20:13;;;;;;;21.20;12.40;;;;;;;2.10;73.73;97403.41;4939167;29;20125;-69
2020/12/03 15:22:38;;;;;;;20.02;10.60;;;;;;;2.02;73.88;97398.31;4952727;28;20042;-70
2020/12/03 15:25:04;;;;;;;21.95;13.27;;;;;;;2.02;74.53;97400.03;4940197;29;20030;-70
2020/12/03 15:27:30;;;;;;;23.33;12.88;;;;;;;2.01;74.71;97385.56;4949059;29;20023;-70
2020/12/03 15:29:55;;;;;;;21.73;10.75;;;;;;;1.95;74.57;97375.41;4936998;29;20015;-70
2020/12/03 15:32:21;;;;;;;17.48;9.95;;;;;;;1.97;75.22;97371.13;4952534;29;20407;-70
2020/12/03 15:34:47;;;;;;;21.30;10.85;;;;;;;1.92;75.15;97371.16;4945681;28;20148;-70
2020/12/03 15:37:13;;;;;;;20.58;11.93;;;;;;;1.92;75.52;97375.41;4950997;29;20020;-70
2020/12/03 15:39:39;;;;;;;19.70;11.10;;;;;;;1.90;75.90;97366.94;4955304;28;20031;-70
2020/12/03 15:42:11;;;;;;;21.15;10.98;;;;;;;1.83;75.93;97355.88;4942068;29;20147;-70
2020/12/03 15:44:43;;;;;;;17.88;10.25;;;;;;;1.77;76.14;97356.78;4955628;28;20044;-69
2020/12/03 15:47:11;;;;;;;19.63;11.20;;;;;;;1.64;76.67;97357.69;4943097;28;20473;-70
2020/12/03 15:49:38;;;;;;;21.52;13.50;;;;;;;1.58;77.23;97357.75;4954289;29;20062;-70
2020/12/03 15:52:03;;;;;;;20.23;12.00;;;;;;;1.51;77.65;97348.44;4951850;28;20030;-69
2020/12/03 15:54:30;;;;;;;21.05;11.43;;;;;;;1.52;77.57;97345.03;4944901;29;20039;-69
2020/12/03 15:56:56;;;;;;;19.92;11.35;;;;;;;1.44;78.06;97349.31;4955966;28;20170;-69
2020/12/03 15:59:22;;;;;;;23.30;11.05;;;;;;;1.38;78.23;97346.78;4941327;28;20036;-69
2020/12/03 16:01:49;;;;;;;18.25;10.77;;;;;;;1.26;78.47;97348.56;4955616;29;20034;-69
2020/12/03 16:04:15;;;;;;;20.58;10.93;;;;;;;1.27;78.38;97340.03;4949778;28;20122;-69
2020/12/03 16:06:44;;;;;;;19.27;10.35;;;;;;;1.33;77.99;97335.75;4946440;29;20098;-69
2020/12/03 16:11:37;;;;;;;17.60;10.38;;;;;;;1.42;77.58;97328.06;4931906;29;20438;-70
2020/12/03 16:14:03;;;;;;;18.58;10.48;;;;;;;1.37;77.75;97322.13;4922116;29;20042;-70
2020/12/03 16:16:28;;;;;;;20.77;10.88;;;;;;;1.37;77.78;97319.59;4928956;29;20461;-70
2020/12/03 16:18:54;;;;;;;16.05;10.85;;;;;;;1.32;77.89;97313.66;4928909;29;20031;-70
2020/12/03 16:21:20;;;;;;;36.08;17.67;;;;;;;1.36;78.77;97317.91;4922000;29;20063;-69
2020/12/03 16:23:46;;;;;;;58.78;25.33;;;;;;;1.50;79.23;97316.13;4933238;29;20027;-69
2020/12/03 16:26:11;;;;;;;41.13;19.20;;;;;;;1.66;79.63;97316.88;4922762;29;20035;-69
2020/12/03 16:28:36;;;;;;;22.10;12.18;;;;;;;1.51;77.72;97328.88;4927630;29;20020;-70
2020/12/03 16:31:03;;;;;;;29.77;13.48;;;;;;;1.49;77.82;97314.41;4929563;29;20118;-70
2020/12/03 16:33:28;;;;;;;20.83;11.23;;;;;;;1.62;77.51;97310.94;4920981;29;20570;-69
2020/12/03 16:35:54;;;;;;;23.95;11.35;;;;;;;1.48;77.96;97307.59;4905295;29;20098;-69
2020/12/03 16:38:19;;;;;;;20.20;12.65;;;;;;;1.65;77.84;97298.16;4929525;29;20402;-70
2020/12/03 16:40:51;;;;;;;19.50;12.75;;;;;;;1.51;76.64;97297.41;4927120;29;20067;-69
2020/12/03 16:43:16;;;;;;;17.98;10.90;;;;;;;1.50;76.83;97300.81;4921942;29;20030;-69
2020/12/03 16:45:42;;;;;;;18.52;10.35;;;;;;;1.72;77.19;97283.63;4932434;29;20540;-70
2020/12/03 16:48:08;;;;;;;16.52;9.65;;;;;;;1.84;76.90;97291.22;4922382;29;20385;-69
2020/12/03 16:50:33;;;;;;;17.75;12.18;;;;;;;1.58;76.05;97290.53;4936084;29;20050;-69
2020/12/03 16:52:59;;;;;;;17.17;10.13;;;;;;;1.55;76.50;97288.88;4934819;29;20470;-69
2020/12/03 16:55:24;;;;;;;17.48;9.43;;;;;;;1.58;75.44;97276.06;4935058;29;20023;-70
2020/12/03 16:57:49;;;;;;;15.45;10.13;;;;;;;1.54;75.50;97269.28;4935996;29;20027;-70
2020/12/03 17:00:15;;;;;;;15.43;9.23;;;;;;;1.63;74.59;97265.81;4936045;29;20031;-69
2020/12/03 17:02:40;;;;;;;18.52;10.68;;;;;;;1.61;74.91;97262.44;4935998;29;20031;-70
2020/12/03 17:05:05;;;;;;;14.60;9.55;;;;;;;1.63;74.61;97253.91;4935044;29;20028;-70
2020/12/03 17:07:31;;;;;;;19.75;11.77;;;;;;;1.54;74.74;97246.31;4936128;29;20400;-70
2020/12/03 17:09:56;;;;;;;62.83;28.90;;;;;;;1.53;74.72;97240.38;4935567;29;20397;-69
2020/12/03 17:12:21;;;;;;;15.38;10.07;;;;;;;1.53;76.16;97240.38;4935913;29;20070;-70
2020/12/03 17:14:46;;;;;;;15.35;9.60;;;;;;;1.64;74.97;97237.72;4936238;29;20167;-70
2020/12/03 17:17:12;;;;;;;14.52;9.45;;;;;;;1.53;74.66;97229.31;4935797;29;20016;-69
2020/12/03 17:19:39;;;;;;;16.67;10.23;;;;;;;1.46;74.68;97220.88;4935852;29;20445;-69
2020/12/03 17:22:04;;;;;;;17.42;11.55;;;;;;;1.54;75.22;97213.13;4918892;29;20118;-69
2020/12/03 17:24:30;;;;;;;13.43;9.32;;;;;;;1.50;74.44;97208.94;4935620;29;20110;-70
2020/12/03 17:26:55;;;;;;;14.82;8.80;;;;;;;1.63;74.46;97195.19;4935715;29;20024;-69
2020/12/03 17:29:23;;;;;;;14.65;9.23;;;;;;;1.46;74.15;97190.25;4935358;29;20362;-69
2020/12/03 17:31:55;;;;;;;15.23;9.07;;;;;;;1.64;74.03;97186.69;4935678;29;20533;-69
2020/12/03 17:34:21;;;;;;;14.65;9.07;;;;;;;1.39;73.83;97180.09;4935341;29;20036;-71
2020/12/03 17:36:46;;;;;;;13.88;8.82;;;;;;;1.25;74.30;97177.63;4935621;29;20035;-69
2020/12/03 17:39:11;;;;;;;14.43;8.25;;;;;;;1.13;74.85;97178.56;4933954;29;20114;-69
2020/12/03 17:41:37;;;;;;;17.13;9.75;;;;;;;1.08;74.69;97170.09;4934177;29;20028;-69
2020/12/03 17:44:02;;;;;;;13.80;8.80;;;;;;;1.08;74.73;97166.72;4934101;29;20054;-69
2020/12/03 17:46:28;;;;;;;12.40;8.85;;;;;;;1.01;75.28;97155.69;4935458;29;20024;-69
2020/12/03 17:48:53;;;;;;;15.52;9.52;;;;;;;1.03;75.14;97151.44;4935316;29;20024;-69
2020/12/03 17:51:18;;;;;;;13.55;9.27;;;;;;;1.07;75.25;97147.19;4935075;29;20038;-69
2020/12/03 17:53:44;;;;;;;16.15;9.25;;;;;;;1.00;75.38;97147.19;4935117;29;20028;-69
2020/12/03 17:56:09;;;;;;;16.92;9.43;;;;;;;0.92;75.94;97148.09;4934806;29;20102;-68
2020/12/03 17:58:34;;;;;;;15.73;9.43;;;;;;;1.02;75.31;97142.94;4934405;29;20019;-69
2020/12/03 18:01:00;;;;;;;14.30;9.68;;;;;;;1.00;75.59;97137.00;4934919;29;20087;-69
2020/12/03 18:03:25;;;;;;;20.67;12.88;;;;;;;0.96;75.63;97137.03;4934991;29;20083;-69
2020/12/03 18:05:50;;;;;;;24.15;13.38;;;;;;;0.97;75.65;97131.09;4934887;29;20439;-69
2020/12/03 18:08:16;;;;;;;18.40;11.00;;;;;;;0.98;75.93;97123.41;4935023;29;20027;-69
2020/12/03 18:10:41;;;;;;;22.70;13.95;;;;;;;0.79;77.34;97131.19;4934570;29;20103;-68
2020/12/03 18:13:07;;;;;;;20.65;12.77;;;;;;;0.54;78.49;97131.34;4934969;29;20028;-69
2020/12/03 18:15:32;;;;;;;22.65;13.98;;;;;;;0.42;79.16;97126.28;4934834;29;20034;-69
2020/12/03 18:17:57;;;;;;;27.17;14.60;;;;;;;0.36;79.66;97126.31;4934797;29;20024;-69
2020/12/03 18:20:23;;;;;;;39.10;18.42;;;;;;;0.36;79.61;97126.31;4934596;29;20035;-69
2020/12/03 18:22:48;;;;;;;40.63;21.40;;;;;;;0.37;79.61;97133.94;4934573;29;20027;-69
2020/12/03 18:25:14;;;;;;;27.98;17.08;;;;;;;0.43;78.63;97118.63;4934505;29;20128;-69
2020/12/03 18:27:39;;;;;;;21.70;12.52;;;;;;;0.62;77.51;97114.28;4934778;29;20031;-69
2020/12/03 18:30:05;;;;;;;26.35;13.18;;;;;;;0.62;77.58;97109.19;4934571;29;20055;-69
2020/12/03 18:32:30;;;;;;;19.88;12.65;;;;;;;0.82;76.54;97115.88;4934295;29;20393;-69
2020/12/03 18:34:56;;;;;;;27.40;13.77;;;;;;;0.79;77.28;97105.72;4934523;29;20036;-69
2020/12/03 18:37:21;;;;;;;27.50;14.95;;;;;;;0.59;78.19;97104.13;4934327;29;20023;-69
2020/12/03 18:39:47;;;;;;;27.27;15.98;;;;;;;0.47;79.12;97104.19;4934368;29;20560;-69
2020/12/03 18:42:15;;;;;;;22.73;13.45;;;;;;;0.51;78.57;97098.22;4934224;29;20448;-69
2020/12/03 18:44:42;;;;;;;27.92;14.50;;;;;;;0.51;78.77;97093.13;4934520;29;20038;-70
2020/12/03 18:47:07;;;;;;;27.10;15.70;;;;;;;0.36;79.71;97098.31;4934560;29;20401;-69
2020/12/03 18:49:33;;;;;;;23.20;13.95;;;;;;;0.23;80.42;97095.81;4934514;29;20035;-69
2020/12/03 18:51:58;;;;;;;22.35;13.05;;;;;;;0.09;80.99;97082.28;4934159;29;20031;-69
2020/12/03 18:54:25;;;;;;;23.60;15.10;;;;;;;0.15;80.91;97077.19;4934042;29;20035;-69
2020/12/03 18:56:50;;;;;;;27.67;14.82;;;;;;;0.08;81.41;97070.41;4934034;29;20024;-69
2020/12/03 18:59:16;;;;;;;27.85;15.85;;;;;;;0.03;81.74;97064.50;4932749;29;20090;-69
2020/12/03 19:01:45;;;;;;;31.33;15.85;;;;;;;0.06;81.52;97061.09;4934022;29;20032;-69
2020/12/03 19:04:11;;;;;;;28.50;16.98;;;;;;;-0.04;82.14;97057.75;4933966;29;20032;-69
2020/12/03 19:06:37;;;;;;;28.67;16.98;;;;;;;-0.16;82.64;97045.06;4933836;29;20099;-70
2020/12/03 19:09:02;;;;;;;31.27;16.50;;;;;;;-0.16;82.84;97050.16;4933666;29;20026;-70
2020/12/03 19:11:47;;;;;;;27.50;15.55;;;;;;;-0.19;83.09;97039.97;4933760;29;20063;-70
2020/12/03 19:14:15;;;;;;;28.58;17.27;;;;;;;-0.19;83.14;97032.34;4933943;29;20079;-69
2020/12/03 19:16:41;;;;;;;28.33;16.63;;;;;;;0.03;82.80;97021.22;4933915;29;20401;-69
2020/12/03 19:19:08;;;;;;;28.08;16.48;;;;;;;0.01;82.59;97022.94;4933622;29;20404;-69
2020/12/03 19:21:36;;;;;;;33.20;17.48;;;;;;;-0.08;82.94;97012.78;4933816;29;20095;-70
2020/12/03 19:24:02;;;;;;;28.00;16.90;;;;;;;-0.02;82.67;97013.59;4933562;29;20431;-70
2020/12/03 19:26:27;;;;;;;32.08;17.90;;;;;;;-0.04;82.81;97001.75;4933963;29;20028;-69
2020/12/03 19:28:53;;;;;;;33.30;17.95;;;;;;;-0.05;82.99;97013.63;4934016;29;20532;-69
2020/12/03 19:31:18;;;;;;;31.80;18.30;;;;;;;-0.07;83.26;97009.38;4933800;29;20024;-69
2020/12/03 19:33:43;;;;;;;29.10;16.27;;;;;;;0.03;82.71;97011.03;4933518;29;20032;-69
2020/12/03 19:36:09;;;;;;;33.92;17.85;;;;;;;0.02;82.82;96999.16;4933668;29;20071;-69
2020/12/03 19:38:34;;;;;;;30.05;16.63;;;;;;;0.12;82.60;97003.34;4933540;29;20469;-69
2020/12/03 19:41:01;;;;;;;29.83;17.83;;;;;;;0.10;82.49;96992.34;4933626;29;20512;-69
2020/12/03 19:43:27;;;;;;;30.00;17.70;;;;;;;0.09;82.66;96994.88;4933384;29;20035;-69
2020/12/03 19:45:52;;;;;;;31.88;17.50;;;;;;;0.07;82.61;96992.34;4933776;29;20079;-70
2020/12/03 19:48:17;;;;;;;36.05;18.25;;;;;;;0.03;82.98;96989.81;4933743;29;20144;-70
2020/12/03 19:50:43;;;;;;;32.38;17.88;;;;;;;0.00;83.04;96988.16;4933234;29;20405;-70
2020/12/03 19:53:08;;;;;;;30.83;17.38;;;;;;;-0.01;83.13;96981.34;4933485;29;20102;-69
2020/12/03 19:55:33;;;;;;;27.20;16.27;;;;;;;0.17;82.56;96982.97;4933532;29;20027;-69
2020/12/03 19:57:59;;;;;;;37.40;20.23;;;;;;;0.01;83.25;96977.13;4933638;29;20126;-70
2020/12/03 20:00:24;;;;;;;37.83;19.30;;;;;;;0.02;83.10;96988.16;4932080;29;20056;-69
2020/12/03 20:02:49;;;;;;;31.30;17.50;;;;;;;0.00;83.20;96977.97;4933372;29;20083;-69
2020/12/03 20:05:15;;;;;;;31.20;17.40;;;;;;;-0.02;83.25;96969.47;4933317;29;20098;-70
2020/12/03 20:07:40;;;;;;;27.45;16.30;;;;;;;0.03;83.29;96960.13;4933688;29;20031;-70
2020/12/03 20:10:05;;;;;;;32.78;18.80;;;;;;;0.06;82.79;96960.13;4933353;29;20445;-69
2020/12/03 20:12:31;;;;;;;29.55;17.88;;;;;;;0.11;82.32;96957.53;4923851;29;20036;-69
2020/12/03 20:14:56;;;;;;;40.83;21.40;;;;;;;0.08;82.42;96949.91;4914410;29;20054;-69
2020/12/03 20:17:22;;;;;;;36.28;19.42;;;;;;;0.09;82.58;96949.03;4914617;29;20038;-69
2020/12/03 20:19:54;;;;;;;35.00;19.13;;;;;;;0.08;82.65;96932.94;4914463;29;20059;-69
2020/12/03 20:22:20;;;;;;;32.08;19.13;;;;;;;0.03;82.96;96934.66;4918252;29;20454;-69
2020/12/03 20:24:45;;;;;;;33.97;19.38;;;;;;;0.05;82.56;96922.78;4917740;29;20091;-70
2020/12/03 20:27:10;;;;;;;33.92;17.70;;;;;;;0.07;82.61;96913.44;4917803;29;20111;-70
2020/12/03 20:29:36;;;;;;;26.10;16.17;;;;;;;0.07;82.43;96903.25;4917768;29;20158;-69
2020/12/03 20:32:01;;;;;;;28.65;17.27;;;;;;;0.04;82.39;96892.22;4917586;29;20078;-69
2020/12/03 20:34:26;;;;;;;31.92;17.33;;;;;;;0.03;82.37;96888.84;4916752;29;20119;-69
2020/12/03 20:36:52;;;;;;;29.92;17.20;;;;;;;0.14;82.00;96892.13;4917723;29;20056;-69